Time;durP1;ratioP1;P1;durP2;ratioP2;P2;SDS_P1;SDS_P2;PMS_P1;PMS_P2;Temp;Humidity;BMP_temperature;BMP_pressure;BME280_temperature;BME280_humidity;BME280_pressure;Samples;Min_cycle;Max_cycle;Signal;HPM_P1;HPM_P2
2022/03/18 00:00:51;;;;;;;11.90;7.90;;;;;;;1.69;100.00;-23862.88;5083799;28;20184;-74
2022/03/18 00:03:17;;;;;;;17.70;8.00;;;;;;;1.99;100.00;-23871.47;5079631;28;20177;-74
2022/03/18 00:05:42;;;;;;;13.10;8.67;;;;;;;1.89;100.00;-23868.47;5080047;28;20582;-74
2022/03/18 00:08:10;;;;;;;13.40;9.63;;;;;;;1.61;100.00;-23860.75;5079535;28;20568;-72
2022/03/18 00:10:35;;;;;;;15.27;9.10;;;;;;;1.60;100.00;-23860.47;5063349;28;20321;-74
2022/03/18 00:13:01;;;;;;;14.87;9.40;;;;;;;1.78;100.00;-23865.59;5080145;28;20233;-73
2022/03/18 00:15:27;;;;;;;14.40;8.83;;;;;;;1.87;100.00;-23867.88;5077501;28;20701;-74
2022/03/18 00:17:54;;;;;;;21.13;9.20;;;;;;;1.94;100.00;-23869.88;5081717;28;20226;-75
2022/03/18 00:20:20;;;;;;;11.90;8.53;;;;;;;1.30;100.00;-23852.03;5082829;28;20642;-74
2022/03/18 00:22:46;;;;;;;14.77;9.00;;;;;;;1.43;100.00;-23855.47;5080399;28;20251;-74
2022/03/18 00:25:13;;;;;;;11.90;8.00;;;;;;;1.88;100.00;-23868.16;5079823;28;20398;-73
2022/03/18 00:27:42;;;;;;;15.13;8.53;;;;;;;1.44;100.00;-23855.88;5082408;28;20547;-73
2022/03/18 00:30:09;;;;;;;18.50;8.37;;;;;;;1.69;100.00;-23862.88;5082866;28;20189;-73
2022/03/18 00:32:38;;;;;;;12.73;8.73;;;;;;;1.79;100.00;-23865.75;5055598;28;20216;-73
2022/03/18 00:35:04;;;;;;;17.87;8.40;;;;;;;1.50;100.00;-23857.47;5079662;28;20187;-75
2022/03/18 00:37:29;;;;;;;11.93;8.43;;;;;;;1.26;100.00;-23850.72;5079212;28;20173;-73
2022/03/18 00:39:55;;;;;;;13.03;8.33;;;;;;;1.48;100.00;-23857.03;5079609;28;20196;-74
2022/03/18 00:42:21;;;;;;;12.93;8.70;;;;;;;1.69;100.00;-23863.03;5080927;28;20239;-73
2022/03/18 00:44:46;;;;;;;12.83;8.20;;;;;;;1.25;100.00;-23850.44;5080300;28;20193;-75
2022/03/18 00:52:40;;;;;;;15.73;9.17;;;;;;;0.88;100.00;-23840.16;5079094;28;20192;-74
2022/03/18 00:55:06;;;;;;;13.83;8.77;;;;;;;1.42;100.00;-23855.31;5078741;28;20181;-74
2022/03/18 00:57:31;;;;;;;12.87;8.67;;;;;;;1.08;100.00;-23845.59;5079829;28;20209;-73
2022/03/18 00:59:57;;;;;;;13.70;8.43;;;;;;;0.81;100.00;-23838.00;5077039;28;20724;-71
2022/03/18 01:02:22;;;;;;;10.97;7.53;;;;;;;1.13;100.00;-23847.03;5082396;28;20184;-74
2022/03/18 01:04:50;;;;;;;12.47;7.87;;;;;;;1.55;100.00;-23859.03;5057055;28;20568;-74
2022/03/18 01:07:18;;;;;;;10.70;8.30;;;;;;;1.15;100.00;-23847.59;5080552;28;20821;-73
2022/03/18 01:09:44;;;;;;;14.13;8.50;;;;;;;1.15;100.00;-23847.59;5081760;28;20227;-72
2022/03/18 01:12:10;;;;;;;17.50;8.60;;;;;;;1.09;100.00;-23845.88;5064769;28;20197;-73
2022/03/18 01:14:35;;;;;;;10.57;7.90;;;;;;;1.14;100.00;-23847.44;5081128;28;20188;-72
2022/03/18 01:17:01;;;;;;;13.90;8.40;;;;;;;1.02;100.00;-23844.00;5080546;28;20651;-74
2022/03/18 01:19:26;;;;;;;15.73;8.10;;;;;;;1.10;100.00;-23846.16;5076065;28;20195;-74
2022/03/18 01:21:52;;;;;;;17.07;8.10;;;;;;;0.90;100.00;-23840.59;5076672;28;21062;-74
2022/03/18 01:24:17;;;;;;;14.47;7.63;;;;;;;1.16;100.00;-23848.03;5062172;28;20938;-72
2022/03/18 01:26:43;;;;;;;13.73;7.83;;;;;;;1.04;100.00;-23844.44;5082031;28;20174;-74
2022/03/18 01:29:08;;;;;;;13.50;7.70;;;;;;;1.54;100.00;-23858.59;5078622;28;20242;-74
2022/03/18 01:31:34;;;;;;;14.10;7.83;;;;;;;1.45;100.00;-23856.03;5061245;28;20321;-74
2022/03/18 01:34:00;;;;;;;15.70;8.07;;;;;;;1.20;100.00;-23849.16;5080196;28;20183;-72
2022/03/18 01:36:26;;;;;;;12.53;7.87;;;;;;;0.87;100.00;-23839.88;5079459;28;20194;-73
2022/03/18 01:38:51;;;;;;;13.50;7.67;;;;;;;0.84;100.00;-23838.88;5079364;28;20184;-73
2022/03/18 01:41:17;;;;;;;10.63;7.27;;;;;;;1.01;100.00;-23843.59;5080199;28;20282;-74
2022/03/18 01:43:45;;;;;;;11.20;7.03;;;;;;;1.49;100.00;-23857.31;5079732;28;20246;-74
2022/03/18 01:46:11;;;;;;;12.40;7.20;;;;;;;1.51;100.00;-23857.88;5082653;28;20177;-73
2022/03/18 01:48:37;;;;;;;12.57;7.40;;;;;;;1.14;100.00;-23847.31;5062190;28;20276;-73
2022/03/18 01:51:07;;;;;;;13.53;7.03;;;;;;;1.63;100.00;-23861.16;5078544;28;20230;-73
2022/03/18 01:53:37;;;;;;;13.00;8.07;;;;;;;1.56;100.00;-23859.31;5079875;28;20193;-75
2022/03/18 01:56:06;;;;;;;19.37;7.17;;;;;;;1.60;100.00;-23860.31;5077001;28;20204;-73
2022/03/18 01:58:32;;;;;;;14.83;8.23;;;;;;;1.22;100.00;-23849.59;5080983;28;20192;-73
2022/03/18 02:00:58;;;;;;;12.83;7.17;;;;;;;1.08;100.00;-23845.72;5079853;28;20185;-73
2022/03/18 02:03:23;;;;;;;13.07;7.40;;;;;;;1.60;100.00;-23860.31;5081472;28;20220;-73
2022/03/18 02:05:49;;;;;;;10.53;6.90;;;;;;;1.60;100.00;-23860.31;5085993;28;20181;-73
2022/03/18 02:08:17;;;;;;;11.30;7.30;;;;;;;1.31;100.00;-23852.31;5075981;28;20252;-73
2022/03/18 02:10:43;;;;;;;12.80;7.23;;;;;;;1.48;100.00;-23856.88;5081782;28;20750;-73
2022/03/18 02:13:09;;;;;;;16.50;7.53;;;;;;;1.56;100.00;-23859.16;5089552;28;20194;-74
2022/03/18 02:15:34;;;;;;;9.80;7.10;;;;;;;1.23;100.00;-23850.03;5087317;28;20273;-73
2022/03/18 02:18:00;;;;;;;13.20;6.83;;;;;;;1.71;100.00;-23863.47;5076543;28;20281;-75
2022/03/18 02:20:26;;;;;;;11.73;7.23;;;;;;;1.70;100.00;-23863.31;5071287;28;20189;-75
2022/03/18 02:22:52;;;;;;;13.87;7.57;;;;;;;1.09;100.00;-23845.88;5056290;28;20241;-74
2022/03/18 02:25:18;;;;;;;10.97;7.53;;;;;;;1.14;100.00;-23847.31;5084816;28;20184;-72
2022/03/18 02:28:12;;;;;;;10.03;7.33;;;;;;;1.40;100.00;-23854.75;5095011;28;20521;-73
2022/03/18 02:30:37;;;;;;;11.00;6.90;;;;;;;1.50;100.00;-23857.59;5072844;28;20196;-72
2022/03/18 02:33:03;;;;;;;12.30;7.57;;;;;;;1.59;100.00;-23860.16;5073938;28;20183;-72
2022/03/18 02:35:29;;;;;;;14.30;7.47;;;;;;;1.07;100.00;-23845.44;5074281;28;20244;-74
2022/03/18 02:38:00;;;;;;;13.87;8.07;;;;;;;1.38;100.00;-23854.16;5091128;28;20556;-73
2022/03/18 02:40:26;;;;;;;13.60;8.00;;;;;;;1.49;100.00;-23857.16;5091476;28;20180;-73
2022/03/18 02:42:52;;;;;;;14.73;7.40;;;;;;;1.07;100.00;-23845.31;5082927;28;20638;-74
2022/03/18 02:45:17;;;;;;;12.97;7.57;;;;;;;1.34;100.00;-23853.03;5062776;28;20283;-73
2022/03/18 02:47:43;;;;;;;11.83;6.97;;;;;;;1.17;100.00;-23848.16;5079912;28;20189;-73
2022/03/18 02:50:08;;;;;;;12.80;7.97;;;;;;;1.19;100.00;-23848.75;5084226;28;20208;-73
2022/03/18 02:52:34;;;;;;;13.10;7.30;;;;;;;1.16;100.00;-23847.88;5082876;28;20683;-74
2022/03/18 02:55:00;;;;;;;12.90;6.90;;;;;;;1.31;100.00;-23852.16;5081759;28;20505;-72
2022/03/18 02:57:25;;;;;;;11.10;7.07;;;;;;;1.04;100.00;-23844.59;5084548;28;20185;-73
2022/03/18 02:59:51;;;;;;;11.33;7.73;;;;;;;1.24;100.00;-23850.31;5080330;28;20217;-74
2022/03/18 03:02:16;;;;;;;12.70;7.33;;;;;;;1.28;100.00;-23851.31;5083423;28;20188;-73
2022/03/18 03:10:11;;;;;;;12.70;7.63;;;;;;;1.23;100.00;-23850.03;5080984;28;20246;-72
2022/03/18 03:12:40;;;;;;;11.80;7.97;;;;;;;0.73;100.00;-23835.88;5082028;28;20267;-74
2022/03/18 03:15:07;;;;;;;10.27;7.40;;;;;;;1.31;100.00;-23852.16;5056702;28;20177;-74
2022/03/18 03:17:33;;;;;;;13.13;7.47;;;;;;;1.19;100.00;-23848.88;5081874;28;20189;-73
2022/03/18 03:19:58;;;;;;;15.27;7.90;;;;;;;0.79;100.00;-23837.44;5081250;28;20768;-74
2022/03/18 03:22:24;;;;;;;15.97;7.63;;;;;;;1.21;100.00;-23849.31;5065170;28;20185;-76
2022/03/18 03:24:49;;;;;;;14.90;8.17;;;;;;;1.06;100.00;-23845.03;5080773;28;20263;-75
2022/03/18 03:27:15;;;;;;;12.10;7.77;;;;;;;0.87;100.00;-23839.72;5083157;28;20314;-73
2022/03/18 03:29:40;;;;;;;13.13;8.00;;;;;;;1.14;100.00;-23847.31;5061657;28;20245;-73
2022/03/18 03:32:06;;;;;;;14.40;7.83;;;;;;;1.28;100.00;-23851.31;5082889;28;20207;-73
2022/03/18 03:34:32;;;;;;;15.47;8.00;;;;;;;1.23;100.00;-23849.88;5080973;28;20179;-73
2022/03/18 03:36:58;;;;;;;16.17;8.63;;;;;;;0.91;100.00;-23840.72;5081562;28;20167;-73
2022/03/18 03:39:24;;;;;;;15.20;9.20;;;;;;;1.11;100.00;-23846.44;5080732;28;20185;-74
2022/03/18 03:41:50;;;;;;;16.07;9.30;;;;;;;1.08;100.00;-23845.72;5080301;28;20188;-73
2022/03/18 03:44:16;;;;;;;16.73;9.37;;;;;;;0.98;100.00;-23842.88;5079852;28;20612;-74
2022/03/18 03:46:41;;;;;;;13.20;8.73;;;;;;;0.59;100.00;-23831.84;5080939;28;20179;-74
2022/03/18 03:49:07;;;;;;;17.33;8.47;;;;;;;1.12;100.00;-23846.72;5082320;28;21272;-73
2022/03/18 03:51:34;;;;;;;22.57;10.00;;;;;;;0.98;100.00;-23842.72;5082312;28;20278;-74
2022/03/18 03:53:59;;;;;;;16.23;9.57;;;;;;;0.59;100.00;-23831.72;5061226;28;20326;-75
2022/03/18 03:56:24;;;;;;;19.27;10.30;;;;;;;0.40;100.00;-23826.56;5082295;28;20662;-75
2022/03/18 03:58:50;;;;;;;19.90;10.50;;;;;;;0.67;100.00;-23834.00;5080400;28;20632;-75
2022/03/18 04:01:15;;;;;;;20.07;10.13;;;;;;;0.34;100.00;-23824.69;5082277;28;20230;-74
2022/03/18 04:03:41;;;;;;;16.50;9.57;;;;;;;0.62;100.00;-23832.56;5083036;28;20549;-75
2022/03/18 04:06:06;;;;;;;24.30;10.60;;;;;;;0.72;100.00;-23835.56;5064183;28;20185;-74
2022/03/18 04:08:32;;;;;;;21.30;11.57;;;;;;;0.46;100.00;-23828.13;5063328;28;20223;-74
2022/03/18 04:10:57;;;;;;;18.03;11.23;;;;;;;0.64;100.00;-23833.16;5084273;28;20594;-74
2022/03/18 04:13:23;;;;;;;18.57;10.27;;;;;;;0.28;100.00;-23822.97;5062130;28;20197;-74
2022/03/18 04:15:48;;;;;;;17.90;10.47;;;;;;;0.69;100.00;-23834.72;5079917;28;20286;-74
2022/03/18 04:18:14;;;;;;;18.43;10.93;;;;;;;0.76;100.00;-23836.56;5082815;28;20188;-74
2022/03/18 04:20:39;;;;;;;15.80;10.30;;;;;;;0.79;100.00;-23837.44;5080106;28;20632;-75
2022/03/18 04:23:05;;;;;;;24.43;12.10;;;;;;;0.44;100.00;-23827.72;5082622;28;20187;-75
2022/03/18 04:25:30;;;;;;;19.80;12.03;;;;;;;-0.19;100.00;-23809.66;5089208;28;20172;-72
2022/03/18 04:27:57;;;;;;;21.00;12.47;;;;;;;0.39;100.00;-23826.28;5063752;28;20193;-75
2022/03/18 04:30:22;;;;;;;21.83;12.17;;;;;;;-0.04;100.00;-23813.97;5080371;28;20589;-74
2022/03/18 04:32:48;;;;;;;24.83;12.73;;;;;;;0.06;100.00;-23816.69;5079763;28;20637;-73
2022/03/18 04:35:13;;;;;;;27.17;13.87;;;;;;;0.12;100.00;-23818.53;5079371;28;20564;-73
2022/03/18 04:37:41;;;;;;;33.53;16.63;;;;;;;0.10;100.00;-23817.81;5082503;28;20265;-75
2022/03/18 04:40:09;;;;;;;37.43;19.23;;;;;;;-0.21;100.00;-23809.22;5083812;28;20182;-75
2022/03/18 04:42:35;;;;;;;30.83;15.93;;;;;;;0.11;100.00;-23818.13;5090727;28;20188;-76
2022/03/18 04:45:00;;;;;;;21.87;13.47;;;;;;;0.00;100.00;-23815.25;5065821;28;20187;-74
2022/03/18 04:47:27;;;;;;;23.93;13.13;;;;;;;-0.16;100.00;-23810.66;5087224;28;20182;-73
2022/03/18 04:49:53;;;;;;;21.23;13.27;;;;;;;-0.03;100.00;-23814.38;5086772;28;20206;-73
2022/03/18 04:52:18;;;;;;;26.00;12.67;;;;;;;0.46;100.00;-23828.13;5068794;28;20197;-74
2022/03/18 04:54:44;;;;;;;25.70;12.90;;;;;;;0.50;100.00;-23829.28;5062167;28;20747;-74
2022/03/18 04:57:15;;;;;;;21.50;11.83;;;;;;;0.51;100.00;-23829.44;5078930;28;20678;-74
2022/03/18 04:59:42;;;;;;;23.50;11.83;;;;;;;0.60;100.00;-23832.13;5063311;28;20635;-75
2022/03/18 05:02:10;;;;;;;19.77;11.63;;;;;;;0.56;100.00;-23831.00;5063350;28;20180;-74
2022/03/18 05:04:37;;;;;;;18.77;11.93;;;;;;;0.73;100.00;-23835.72;5082918;28;20268;-74
2022/03/18 05:07:03;;;;;;;17.20;10.63;;;;;;;0.71;100.00;-23835.28;5082961;28;20187;-74
2022/03/18 05:09:28;;;;;;;18.93;11.83;;;;;;;0.43;100.00;-23827.28;5082723;28;20641;-74
2022/03/18 05:11:54;;;;;;;21.70;12.67;;;;;;;1.12;100.00;-23846.72;5084649;28;20185;-73
2022/03/18 05:14:19;;;;;;;24.53;12.77;;;;;;;0.62;100.00;-23832.56;5084839;28;20173;-75
2022/03/18 05:16:45;;;;;;;30.80;17.13;;;;;;;1.18;100.00;-23848.44;5078318;28;20177;-73
2022/03/18 05:19:10;;;;;;;48.80;26.87;;;;;;;1.65;100.00;-23861.88;5080097;28;20181;-76
2022/03/18 05:21:39;;;;;;;31.33;18.40;;;;;;;1.66;100.00;-23862.19;5082623;28;20193;-74
2022/03/18 05:24:06;;;;;;;33.03;15.47;;;;;;;1.68;100.00;-23862.59;5089263;28;20556;-74
2022/03/18 05:26:32;;;;;;;30.63;13.90;;;;;;;1.47;100.00;-23856.59;5086560;28;20197;-74
2022/03/18 05:28:58;;;;;;;25.80;14.97;;;;;;;1.38;100.00;-23854.16;5088547;28;20209;-75
2022/03/18 05:31:24;;;;;;;31.73;17.23;;;;;;;1.34;100.00;-23853.16;5087802;28;20185;-75
2022/03/18 05:33:49;;;;;;;36.47;17.63;;;;;;;1.28;100.00;-23851.31;5079357;28;20503;-74
2022/03/18 05:36:15;;;;;;;34.53;17.93;;;;;;;1.29;100.00;-23851.75;5068534;28;20233;-74
2022/03/18 05:38:40;;;;;;;27.97;14.57;;;;;;;1.38;100.00;-23854.03;5087189;28;20182;-72
2022/03/18 05:41:07;;;;;;;27.10;15.30;;;;;;;1.41;100.00;-23855.03;5086322;28;20204;-74
2022/03/18 05:43:32;;;;;;;25.20;14.87;;;;;;;1.43;100.00;-23855.47;5090207;28;20747;-74
2022/03/18 05:45:58;;;;;;;25.03;12.47;;;;;;;1.24;100.00;-23850.31;5086674;28;20299;-74
2022/03/18 05:48:23;;;;;;;22.13;13.40;;;;;;;0.99;100.00;-23843.00;5082089;28;20184;-71
2022/03/18 05:50:49;;;;;;;23.97;13.17;;;;;;;1.29;100.00;-23851.59;5084612;28;20182;-73
2022/03/18 05:53:14;;;;;;;20.87;12.67;;;;;;;0.97;100.00;-23842.59;5082226;28;20674;-71
2022/03/18 05:58:24;;;;;;;24.50;12.53;;;;;;;1.00;100.00;-23843.31;5088081;28;20216;-73
2022/03/18 06:00:50;;;;;;;26.60;13.17;;;;;;;1.51;100.00;-23857.75;5084973;28;20217;-74
2022/03/18 06:03:15;;;;;;;23.03;12.70;;;;;;;1.22;100.00;-23849.72;5071405;28;20237;-72
2022/03/18 06:05:42;;;;;;;21.07;13.20;;;;;;;1.71;100.00;-23863.59;5082370;28;20564;-74
2022/03/18 06:13:37;;;;;;;26.27;15.07;;;;;;;1.93;100.00;-23869.75;5083794;28;20191;-72
2022/03/18 06:16:02;;;;;;;22.60;14.00;;;;;;;1.76;100.00;-23865.03;5087764;28;20193;-74
2022/03/18 06:18:28;;;;;;;26.40;14.77;;;;;;;2.23;100.00;-23878.16;5083262;28;20196;-72
2022/03/18 06:20:55;;;;;;;28.07;16.40;;;;;;;1.80;100.00;-23865.88;5085888;28;20567;-72
2022/03/18 06:23:21;;;;;;;28.90;16.77;;;;;;;2.17;100.00;-23876.47;5092305;28;20178;-75
2022/03/18 06:25:46;;;;;;;25.17;14.37;;;;;;;2.62;100.00;-23889.31;5075270;28;20183;-71
2022/03/18 06:28:12;;;;;;;25.33;15.53;;;;;;;2.70;100.00;-23891.44;5089970;28;20202;-72
2022/03/18 06:30:37;;;;;;;25.97;14.93;;;;;;;2.80;100.00;-23894.16;5066424;28;20673;-73
2022/03/18 06:33:03;;;;;;;31.27;17.33;;;;;;;3.29;100.00;-23908.00;5085288;28;20597;-73
2022/03/18 06:35:29;;;;;;;25.73;14.90;;;;;;;3.26;100.00;-23907.28;5090607;28;20194;-73
2022/03/18 06:37:55;;;;;;;26.77;14.80;;;;;;;3.00;100.00;-23900.00;5089119;28;20718;-73
2022/03/18 06:40:21;;;;;;;19.87;13.67;;;;;;;3.04;100.00;-23901.16;5086219;28;20173;-72
2022/03/18 06:42:46;;;;;;;32.57;15.83;;;;;;;3.36;100.00;-23910.13;5087074;28;20663;-73
2022/03/18 06:45:12;;;;;;;25.87;16.47;;;;;;;3.50;100.00;-23914.13;5065750;28;20197;-74
2022/03/18 06:47:37;;;;;;;28.40;16.33;;;;;;;3.75;100.00;-23920.97;5064621;28;20181;-72
2022/03/18 06:50:03;;;;;;;28.83;16.03;;;;;;;3.43;100.00;-23911.97;5071332;28;20231;-73
2022/03/18 06:52:28;;;;;;;24.33;15.50;;;;;;;3.71;100.00;-23919.81;5074579;28;20178;-73
2022/03/18 06:54:54;;;;;;;26.70;16.07;;;;;;;3.37;100.00;-23910.41;5092436;28;20244;-72
2022/03/18 06:57:19;;;;;;;23.50;14.73;;;;;;;3.70;100.00;-23919.53;5069020;28;20186;-73
2022/03/18 06:59:45;;;;;;;22.63;15.20;;;;;;;3.86;100.00;-23924.09;5072873;28;20261;-73
2022/03/18 07:02:10;;;;;;;23.63;15.10;;;;;;;4.11;100.00;-23931.06;5054273;28;20263;-75
2022/03/18 07:04:36;;;;;;;21.60;13.83;;;;;;;4.52;100.00;-23942.75;5072661;28;20181;-71
2022/03/18 07:07:01;;;;;;;23.80;14.97;;;;;;;4.23;100.00;-23934.50;5072596;28;20560;-73
2022/03/18 07:09:27;;;;;;;32.80;15.43;;;;;;;4.32;100.00;-23937.19;5072286;28;20240;-74
2022/03/18 07:11:53;;;;;;;23.40;14.10;;;;;;;4.36;100.00;-23938.34;5071532;28;20185;-71
2022/03/18 07:14:18;;;;;;;25.07;13.80;;;;;;;4.59;100.00;-23944.59;5072146;28;20167;-76
2022/03/18 07:19:28;;;;;;;25.10;15.63;;;;;;;5.26;100.00;-23963.66;5072527;28;20184;-73
2022/03/18 07:21:54;;;;;;;26.30;15.47;;;;;;;5.54;100.00;-23971.47;5072631;28;20254;-73
2022/03/18 07:24:19;;;;;;;24.70;15.23;;;;;;;5.58;100.00;-23972.47;5072525;28;20626;-73
2022/03/18 07:26:45;;;;;;;23.70;14.50;;;;;;;5.05;100.00;-23957.69;5072652;28;20178;-73
2022/03/18 07:29:10;;;;;;;23.37;15.03;;;;;;;6.03;100.00;-23985.13;5072015;28;20200;-72
2022/03/18 07:31:35;;;;;;;17.50;9.27;;;;;;;5.42;85.64;-23968.06;5072481;28;20170;-74
2022/03/18 07:34:01;;;;;;;11.63;8.00;;;;;;;4.95;70.62;-23954.72;5073010;28;20201;-73
2022/03/18 07:36:27;;;;;;;10.50;7.17;;;;;;;4.12;68.34;-23931.34;5055098;28;20182;-74
2022/03/18 07:38:52;;;;;;;13.63;8.37;;;;;;;4.30;72.84;-23936.50;5073213;28;20171;-72
2022/03/18 07:41:18;;;;;;;13.47;8.43;;;;;;;4.79;75.57;-23950.44;5072859;28;20170;-72
2022/03/18 07:43:44;;;;;;;15.97;8.30;;;;;;;4.84;76.83;-23951.72;5072507;28;20189;-73
2022/03/18 07:46:09;;;;;;;12.93;7.80;;;;;;;5.28;67.71;-23964.09;5072591;28;20182;-72
2022/03/18 07:48:36;;;;;;;13.33;7.77;;;;;;;4.34;67.02;-23937.78;5072443;28;20208;-74
2022/03/18 07:51:01;;;;;;;12.93;8.03;;;;;;;4.82;69.86;-23951.16;5073022;28;20164;-73
2022/03/18 07:53:26;;;;;;;12.93;8.20;;;;;;;4.55;70.79;-23943.59;5054325;28;20257;-74
2022/03/18 07:55:52;;;;;;;13.30;8.30;;;;;;;4.74;71.68;-23949.00;5072299;28;20158;-72
2022/03/18 07:58:17;;;;;;;12.97;8.53;;;;;;;4.84;70.90;-23951.84;5072180;28;20174;-74
2022/03/18 08:00:43;;;;;;;12.07;7.87;;;;;;;5.49;68.55;-23969.91;5072598;28;20295;-75
2022/03/18 08:03:09;;;;;;;14.93;7.77;;;;;;;5.44;67.88;-23968.50;5072672;28;20269;-74
2022/03/18 08:05:35;;;;;;;14.03;7.70;;;;;;;5.84;60.37;-23979.72;5072144;28;20556;-73
2022/03/18 08:08:01;;;;;;;13.47;7.67;;;;;;;5.08;64.85;-23958.53;5053691;28;20188;-73
2022/03/18 08:10:26;;;;;;;11.07;7.63;;;;;;;5.63;67.37;-23974.03;5071611;28;20225;-74
2022/03/18 08:12:52;;;;;;;11.30;7.40;;;;;;;5.17;65.12;-23961.09;5053124;28;20643;-73
2022/03/18 08:15:20;;;;;;;10.87;6.97;;;;;;;5.42;65.35;-23967.94;5071161;28;20170;-73
2022/03/18 08:17:45;;;;;;;13.13;7.63;;;;;;;4.57;66.81;-23944.03;5071749;28;20170;-73
2022/03/18 08:20:13;;;;;;;12.23;7.50;;;;;;;4.96;64.48;-23955.13;5071620;28;20271;-72
2022/03/18 08:22:40;;;;;;;12.07;7.50;;;;;;;4.93;62.87;-23954.13;5071560;28;20170;-74
2022/03/18 08:25:07;;;;;;;11.57;7.33;;;;;;;4.84;66.29;-23951.72;5071934;28;20197;-73
2022/03/18 08:27:33;;;;;;;9.87;7.40;;;;;;;5.50;66.26;-23970.22;5072227;28;20166;-74
2022/03/18 08:30:00;;;;;;;13.07;7.33;;;;;;;5.30;61.58;-23964.81;5072542;28;20660;-72
2022/03/18 08:32:27;;;;;;;11.20;7.30;;;;;;;5.34;59.81;-23965.78;5053728;28;20243;-72
2022/03/18 08:34:53;;;;;;;12.93;7.23;;;;;;;5.06;66.10;-23957.97;5071809;28;20178;-73
2022/03/18 08:40:04;;;;;;;10.37;7.10;;;;;;;5.13;62.15;-23959.97;5071228;28;20239;-72
2022/03/18 08:42:31;;;;;;;11.47;7.37;;;;;;;5.31;62.41;-23965.09;5071192;28;20620;-74
2022/03/18 08:44:56;;;;;;;10.40;7.40;;;;;;;5.20;62.87;-23961.97;5053575;28;20589;-73
2022/03/18 08:47:23;;;;;;;12.70;7.67;;;;;;;5.37;61.30;-23966.50;5053236;28;20236;-73
2022/03/18 08:49:49;;;;;;;10.97;7.10;;;;;;;5.05;64.72;-23957.69;5071353;28;20206;-75
2022/03/18 08:52:14;;;;;;;11.60;7.23;;;;;;;4.75;61.60;-23949.16;5071205;28;20177;-74
2022/03/18 08:54:40;;;;;;;15.23;7.80;;;;;;;5.34;62.36;-23965.78;5070898;28;20181;-74
2022/03/18 08:57:05;;;;;;;18.17;7.63;;;;;;;4.99;66.39;-23955.84;5071046;28;20257;-73
2022/03/18 08:59:30;;;;;;;9.63;6.87;;;;;;;5.18;61.49;-23961.38;5053741;28;20562;-72
2022/03/18 09:01:56;;;;;;;14.50;7.47;;;;;;;5.40;60.94;-23967.38;5071309;28;20589;-75
2022/03/18 09:04:21;;;;;;;14.17;7.37;;;;;;;5.52;59.12;-23970.78;5070991;28;20175;-73
2022/03/18 09:06:47;;;;;;;14.93;6.83;;;;;;;5.34;58.40;-23965.94;5053265;28;20174;-74
2022/03/18 09:09:12;;;;;;;17.10;7.27;;;;;;;4.86;58.49;-23952.44;5070862;28;20259;-74
2022/03/18 09:11:37;;;;;;;13.87;8.23;;;;;;;5.19;57.48;-23961.53;5071671;28;20208;-74
2022/03/18 09:14:03;;;;;;;11.63;7.40;;;;;;;5.97;57.17;-23983.41;5071277;28;20182;-73
2022/03/18 09:16:30;;;;;;;10.20;6.53;;;;;;;5.64;59.93;-23974.31;5053182;28;20645;-74
2022/03/18 09:18:55;;;;;;;12.63;6.67;;;;;;;6.02;59.26;-23984.97;5071415;28;20174;-75
2022/03/18 09:21:21;;;;;;;9.43;6.70;;;;;;;5.73;61.02;-23976.75;5071157;28;20253;-74
2022/03/18 09:23:46;;;;;;;11.37;7.17;;;;;;;6.39;59.00;-23995.34;5053080;28;20186;-74
2022/03/18 09:26:12;;;;;;;11.83;7.70;;;;;;;5.87;54.57;-23980.72;5074768;28;20678;-74
2022/03/18 09:28:40;;;;;;;13.90;7.93;;;;;;;6.15;56.69;-23988.53;5074767;28;20249;-75
2022/03/18 09:31:05;;;;;;;12.83;7.03;;;;;;;6.95;54.03;-24010.97;5074487;28;20174;-74
2022/03/18 09:33:31;;;;;;;12.77;7.80;;;;;;;5.88;55.15;-23981.00;5074449;28;20538;-74
2022/03/18 09:35:56;;;;;;;11.90;7.60;;;;;;;7.19;55.84;-24017.78;5074627;28;20540;-74
2022/03/18 09:38:21;;;;;;;13.20;7.83;;;;;;;7.24;54.19;-24019.19;5074336;28;20709;-75
2022/03/18 09:40:47;;;;;;;12.90;7.77;;;;;;;6.55;56.60;-23999.75;5074272;28;20222;-74
2022/03/18 09:43:14;;;;;;;15.17;7.80;;;;;;;7.06;52.09;-24014.22;5074453;28;20174;-74
2022/03/18 09:45:40;;;;;;;11.97;7.50;;;;;;;6.70;53.95;-24004.00;5074527;28;20200;-73
2022/03/18 09:48:11;;;;;;;14.73;7.20;;;;;;;6.34;59.74;-23993.78;5074671;28;20573;-74
2022/03/18 09:50:39;;;;;;;12.73;8.77;;;;;;;6.77;59.02;-24006.00;5056807;28;20277;-75
2022/03/18 09:53:05;;;;;;;14.57;8.63;;;;;;;6.53;57.76;-23999.31;5056427;28;20588;-73
2022/03/18 09:55:34;;;;;;;12.60;8.03;;;;;;;6.46;59.20;-23997.19;5074840;28;20581;-76
2022/03/18 09:58:00;;;;;;;14.10;7.63;;;;;;;5.72;58.39;-23976.47;5075012;28;20170;-73
2022/03/18 10:00:25;;;;;;;13.57;7.20;;;;;;;5.67;58.92;-23975.19;5056975;28;20174;-75
2022/03/18 10:03:12;;;;;;;11.33;7.20;;;;;;;5.59;57.68;-23972.75;5074497;28;20553;-74
2022/03/18 10:05:46;;;;;;;11.90;7.47;;;;;;;6.09;59.09;-23986.84;5074795;28;20193;-74
2022/03/18 10:08:12;;;;;;;10.67;6.97;;;;;;;6.17;55.12;-23989.25;5074274;28;20168;-74
2022/03/18 10:10:45;;;;;;;16.00;6.70;;;;;;;6.10;54.71;-23987.13;5073551;28;20263;-73
2022/03/18 10:13:12;;;;;;;10.03;6.70;;;;;;;6.16;52.94;-23988.97;5073751;28;20231;-73
2022/03/18 10:15:38;;;;;;;11.87;6.90;;;;;;;6.43;54.26;-23996.50;5073875;28;20709;-75
2022/03/18 10:18:04;;;;;;;11.93;7.03;;;;;;;6.51;51.71;-23998.63;5073773;28;20178;-74
2022/03/18 10:20:35;;;;;;;10.67;7.33;;;;;;;6.80;54.55;-24006.72;5073998;28;20548;-73
2022/03/18 10:23:15;;;;;;;10.43;7.40;;;;;;;6.13;54.01;-23987.97;5073754;28;20174;-73
2022/03/18 10:25:52;;;;;;;10.60;6.33;;;;;;;6.13;54.91;-23988.13;5073639;28;20195;-73
2022/03/18 10:28:37;;;;;;;10.27;7.40;;;;;;;6.48;55.73;-23997.75;5081630;28;20193;-74
2022/03/18 10:31:11;;;;;;;11.17;7.60;;;;;;;7.03;55.50;-24013.22;5089049;28;20186;-73
2022/03/18 10:39:34;;;;;;;13.40;7.83;;;;;;;7.81;54.47;-24035.22;5073276;28;20239;-74
2022/03/18 10:42:02;;;;;;;14.60;7.93;;;;;;;7.83;50.01;-24035.63;5071884;28;20244;-74
2022/03/18 10:44:51;;;;;;;12.23;8.17;;;;;;;7.86;48.19;-24036.47;5077694;28;20208;-75
2022/03/18 10:47:34;;;;;;;9.70;6.90;;;;;;;7.67;47.57;-24031.25;5076213;28;20205;-73
2022/03/18 10:50:11;;;;;;;11.03;7.20;;;;;;;7.83;47.01;-24035.63;5092906;28;20200;-74
2022/03/18 10:52:46;;;;;;;9.80;7.00;;;;;;;7.07;50.10;-24014.50;5073730;28;20161;-74
2022/03/18 10:55:21;;;;;;;9.60;6.97;;;;;;;7.06;51.92;-24014.22;5082310;28;20255;-74
2022/03/18 10:57:55;;;;;;;11.73;7.00;;;;;;;6.81;51.18;-24007.00;5070526;28;20272;-72
2022/03/18 11:00:22;;;;;;;10.73;7.20;;;;;;;7.46;48.05;-24025.44;5087881;28;20265;-73
2022/03/18 11:02:50;;;;;;;11.77;7.07;;;;;;;7.78;48.74;-24034.34;5092411;28;20250;-74
2022/03/18 11:05:19;;;;;;;10.13;6.80;;;;;;;8.60;45.95;-24057.16;5071445;28;20216;-72
2022/03/18 11:07:45;;;;;;;12.63;7.30;;;;;;;9.14;41.46;-24072.44;5073236;28;20225;-74
2022/03/18 11:12:58;;;;;;;13.80;7.50;;;;;;;8.68;45.29;-24059.56;5072666;28;20201;-73
2022/03/18 11:15:27;;;;;;;10.40;7.00;;;;;;;8.97;44.99;-24067.47;5072448;28;20575;-73
2022/03/18 11:17:55;;;;;;;11.20;7.43;;;;;;;8.85;45.20;-24064.38;5054777;28;20217;-75
2022/03/18 11:20:23;;;;;;;9.43;7.27;;;;;;;8.86;45.60;-24064.66;5054134;28;20227;-74
2022/03/18 11:22:49;;;;;;;11.67;7.27;;;;;;;8.92;46.36;-24066.22;5072629;28;20277;-74
2022/03/18 11:25:15;;;;;;;10.83;7.30;;;;;;;9.07;46.75;-24070.31;5053436;28;20605;-75
2022/03/18 11:27:44;;;;;;;11.00;7.67;;;;;;;8.22;46.25;-24046.53;5071979;28;20166;-75
2022/03/18 11:30:26;;;;;;;9.87;6.60;;;;;;;8.85;44.89;-24064.22;5053768;28;20699;-74
2022/03/18 11:33:06;;;;;;;9.30;6.57;;;;;;;9.16;45.23;-24072.84;5071987;28;20215;-73
2022/03/18 11:35:50;;;;;;;10.43;7.03;;;;;;;8.28;44.49;-24048.22;5071807;28;20174;-74
2022/03/18 11:38:17;;;;;;;12.53;6.67;;;;;;;7.72;47.37;-24032.50;5085563;28;20181;-75
2022/03/18 11:40:59;;;;;;;10.27;6.60;;;;;;;7.62;46.68;-24029.81;5088961;28;20177;-74
2022/03/18 11:43:32;;;;;;;11.03;6.40;;;;;;;6.75;47.12;-24005.28;5090899;28;20188;-73
2022/03/18 11:46:25;;;;;;;10.57;6.53;;;;;;;7.03;46.86;-24013.22;5078195;28;20182;-74
2022/03/18 11:49:02;;;;;;;10.37;6.63;;;;;;;7.43;46.21;-24024.44;5080015;28;20714;-74